sensor_id;sensor_type;location;lat;lon;timestamp;P1;durP1;ratioP1;P2;durP2;ratioP2
64609;SDS011;51019;46.090;6.350;2022-12-13T00:01:35;37.10;;;16.42;;
64609;SDS011;51019;46.090;6.350;2022-12-13T00:04:04;40.10;;;17.27;;
64609;SDS011;51019;46.090;6.350;2022-12-13T00:06:33;39.38;;;15.70;;
64609;SDS011;51019;46.090;6.350;2022-12-13T00:09:03;36.97;;;16.35;;
64609;SDS011;51019;46.090;6.350;2022-12-13T00:11:31;36.58;;;16.05;;
64609;SDS011;51019;46.090;6.350;2022-12-13T00:14:00;37.05;;;17.48;;
64609;SDS011;51019;46.090;6.350;2022-12-13T00:16:27;41.72;;;19.50;;
64609;SDS011;51019;46.090;6.350;2022-12-13T00:18:55;45.45;;;19.90;;
64609;SDS011;51019;46.090;6.350;2022-12-13T00:21:27;40.53;;;18.85;;
64609;SDS011;51019;46.090;6.350;2022-12-13T00:23:56;42.30;;;19.00;;
64609;SDS011;51019;46.090;6.350;2022-12-13T00:26:25;40.17;;;17.17;;
64609;SDS011;51019;46.090;6.350;2022-12-13T00:28:53;37.42;;;16.23;;
64609;SDS011;51019;46.090;6.350;2022-12-13T00:31:22;39.40;;;16.52;;
64609;SDS011;51019;46.090;6.350;2022-12-13T00:33:50;41.25;;;17.35;;
64609;SDS011;51019;46.090;6.350;2022-12-13T00:36:18;41.72;;;15.55;;
64609;SDS011;51019;46.090;6.350;2022-12-13T00:38:48;39.65;;;15.40;;
64609;SDS011;51019;46.090;6.350;2022-12-13T00:41:25;37.88;;;16.40;;
64609;SDS011;51019;46.090;6.350;2022-12-13T00:43:54;35.63;;;16.40;;
64609;SDS011;51019;46.090;6.350;2022-12-13T00:46:21;38.10;;;17.85;;
64609;SDS011;51019;46.090;6.350;2022-12-13T00:48:49;40.83;;;16.48;;
64609;SDS011;51019;46.090;6.350;2022-12-13T00:51:18;38.05;;;15.43;;
64609;SDS011;51019;46.090;6.350;2022-12-13T00:53:48;35.40;;;14.70;;
64609;SDS011;51019;46.090;6.350;2022-12-13T00:56:16;33.88;;;14.23;;
64609;SDS011;51019;46.090;6.350;2022-12-13T00:58:46;34.63;;;15.02;;
64609;SDS011;51019;46.090;6.350;2022-12-13T01:01:14;35.13;;;15.75;;
64609;SDS011;51019;46.090;6.350;2022-12-13T01:03:42;38.08;;;15.77;;
64609;SDS011;51019;46.090;6.350;2022-12-13T01:06:09;39.65;;;16.25;;
64609;SDS011;51019;46.090;6.350;2022-12-13T01:08:37;37.50;;;15.15;;
64609;SDS011;51019;46.090;6.350;2022-12-13T01:11:07;36.92;;;14.98;;
64609;SDS011;51019;46.090;6.350;2022-12-13T01:13:36;37.05;;;15.88;;
64609;SDS011;51019;46.090;6.350;2022-12-13T01:16:05;35.95;;;14.95;;
64609;SDS011;51019;46.090;6.350;2022-12-13T01:18:35;34.15;;;14.93;;
64609;SDS011;51019;46.090;6.350;2022-12-13T01:21:03;40.42;;;16.40;;
64609;SDS011;51019;46.090;6.350;2022-12-13T01:23:33;40.85;;;15.55;;
64609;SDS011;51019;46.090;6.350;2022-12-13T01:26:00;38.50;;;16.20;;
64609;SDS011;51019;46.090;6.350;2022-12-13T01:28:30;38.03;;;16.10;;
64609;SDS011;51019;46.090;6.350;2022-12-13T01:30:59;42.83;;;16.65;;
64609;SDS011;51019;46.090;6.350;2022-12-13T01:33:30;37.35;;;14.95;;
64609;SDS011;51019;46.090;6.350;2022-12-13T01:35:59;38.30;;;16.50;;
64609;SDS011;51019;46.090;6.350;2022-12-13T01:38:27;40.25;;;17.65;;
64609;SDS011;51019;46.090;6.350;2022-12-13T01:40:54;40.08;;;15.20;;
64609;SDS011;51019;46.090;6.350;2022-12-13T01:43:23;42.00;;;17.23;;
64609;SDS011;51019;46.090;6.350;2022-12-13T01:45:53;42.10;;;17.38;;
64609;SDS011;51019;46.090;6.350;2022-12-13T01:48:22;43.15;;;16.70;;
64609;SDS011;51019;46.090;6.350;2022-12-13T01:50:54;39.05;;;16.80;;
64609;SDS011;51019;46.090;6.350;2022-12-13T01:53:26;43.35;;;18.30;;
64609;SDS011;51019;46.090;6.350;2022-12-13T01:55:58;39.47;;;17.10;;
64609;SDS011;51019;46.090;6.350;2022-12-13T01:58:28;40.30;;;17.05;;
64609;SDS011;51019;46.090;6.350;2022-12-13T02:00:58;41.78;;;17.92;;
64609;SDS011;51019;46.090;6.350;2022-12-13T02:03:26;37.80;;;15.95;;
64609;SDS011;51019;46.090;6.350;2022-12-13T02:05:55;43.47;;;16.33;;
64609;SDS011;51019;46.090;6.350;2022-12-13T02:08:26;40.70;;;17.60;;
64609;SDS011;51019;46.090;6.350;2022-12-13T02:10:54;42.88;;;18.48;;
64609;SDS011;51019;46.090;6.350;2022-12-13T02:13:23;45.55;;;17.42;;
64609;SDS011;51019;46.090;6.350;2022-12-13T02:15:52;40.00;;;16.85;;
64609;SDS011;51019;46.090;6.350;2022-12-13T02:18:33;39.65;;;16.20;;
64609;SDS011;51019;46.090;6.350;2022-12-13T02:21:18;38.90;;;16.42;;
64609;SDS011;51019;46.090;6.350;2022-12-13T02:23:59;43.88;;;18.10;;
64609;SDS011;51019;46.090;6.350;2022-12-13T02:26:51;43.65;;;17.08;;
64609;SDS011;51019;46.090;6.350;2022-12-13T02:29:42;38.47;;;16.75;;
64609;SDS011;51019;46.090;6.350;2022-12-13T02:32:42;41.15;;;17.40;;
64609;SDS011;51019;46.090;6.350;2022-12-13T02:35:30;40.10;;;17.67;;
64609;SDS011;51019;46.090;6.350;2022-12-13T02:38:07;38.47;;;16.33;;
64609;SDS011;51019;46.090;6.350;2022-12-13T02:40:40;44.05;;;17.08;;
64609;SDS011;51019;46.090;6.350;2022-12-13T02:43:12;42.28;;;16.42;;
64609;SDS011;51019;46.090;6.350;2022-12-13T02:45:49;40.00;;;16.88;;
64609;SDS011;51019;46.090;6.350;2022-12-13T02:50:49;36.92;;;16.23;;
64609;SDS011;51019;46.090;6.350;2022-12-13T02:53:19;40.17;;;18.15;;
64609;SDS011;51019;46.090;6.350;2022-12-13T02:55:48;40.97;;;17.33;;
64609;SDS011;51019;46.090;6.350;2022-12-13T02:58:17;41.95;;;16.92;;
64609;SDS011;51019;46.090;6.350;2022-12-13T03:00:52;41.05;;;16.65;;
64609;SDS011;51019;46.090;6.350;2022-12-13T03:03:34;40.67;;;17.67;;
64609;SDS011;51019;46.090;6.350;2022-12-13T03:06:12;40.40;;;17.10;;
64609;SDS011;51019;46.090;6.350;2022-12-13T03:08:57;42.28;;;18.83;;
64609;SDS011;51019;46.090;6.350;2022-12-13T03:11:36;46.05;;;19.30;;
64609;SDS011;51019;46.090;6.350;2022-12-13T03:14:35;43.70;;;18.48;;
64609;SDS011;51019;46.090;6.350;2022-12-13T03:17:09;47.83;;;19.02;;
64609;SDS011;51019;46.090;6.350;2022-12-13T03:19:42;45.10;;;19.00;;
64609;SDS011;51019;46.090;6.350;2022-12-13T03:22:10;43.22;;;17.67;;
64609;SDS011;51019;46.090;6.350;2022-12-13T03:24:37;45.92;;;18.40;;
64609;SDS011;51019;46.090;6.350;2022-12-13T03:27:04;55.05;;;20.65;;
64609;SDS011;51019;46.090;6.350;2022-12-13T03:29:32;46.30;;;19.45;;
64609;SDS011;51019;46.090;6.350;2022-12-13T03:31:59;45.45;;;21.30;;
64609;SDS011;51019;46.090;6.350;2022-12-13T03:34:29;44.22;;;18.98;;
64609;SDS011;51019;46.090;6.350;2022-12-13T03:36:57;44.53;;;19.20;;
64609;SDS011;51019;46.090;6.350;2022-12-13T03:39:24;47.45;;;19.48;;
64609;SDS011;51019;46.090;6.350;2022-12-13T03:41:52;46.15;;;19.95;;
64609;SDS011;51019;46.090;6.350;2022-12-13T03:44:19;47.40;;;19.35;;
64609;SDS011;51019;46.090;6.350;2022-12-13T03:46:47;42.80;;;18.88;;
64609;SDS011;51019;46.090;6.350;2022-12-13T03:49:14;56.45;;;21.67;;
64609;SDS011;51019;46.090;6.350;2022-12-13T03:51:44;48.97;;;18.42;;
64609;SDS011;51019;46.090;6.350;2022-12-13T03:54:12;49.90;;;20.38;;
64609;SDS011;51019;46.090;6.350;2022-12-13T03:56:39;47.45;;;19.92;;
64609;SDS011;51019;46.090;6.350;2022-12-13T03:59:06;48.33;;;19.98;;
64609;SDS011;51019;46.090;6.350;2022-12-13T04:01:34;47.95;;;20.75;;
64609;SDS011;51019;46.090;6.350;2022-12-13T04:04:01;50.63;;;21.30;;
64609;SDS011;51019;46.090;6.350;2022-12-13T04:06:29;49.92;;;20.67;;
64609;SDS011;51019;46.090;6.350;2022-12-13T04:08:58;47.50;;;18.40;;
64609;SDS011;51019;46.090;6.350;2022-12-13T04:11:26;46.67;;;19.70;;
64609;SDS011;51019;46.090;6.350;2022-12-13T04:14:10;49.28;;;20.52;;
64609;SDS011;51019;46.090;6.350;2022-12-13T04:16:38;51.75;;;20.15;;
64609;SDS011;51019;46.090;6.350;2022-12-13T04:19:05;45.03;;;17.73;;
64609;SDS011;51019;46.090;6.350;2022-12-13T04:21:32;42.65;;;18.25;;
64609;SDS011;51019;46.090;6.350;2022-12-13T04:24:01;43.90;;;19.00;;
64609;SDS011;51019;46.090;6.350;2022-12-13T04:26:29;47.45;;;20.17;;
64609;SDS011;51019;46.090;6.350;2022-12-13T04:28:56;47.40;;;19.08;;
64609;SDS011;51019;46.090;6.350;2022-12-13T04:31:23;50.60;;;19.80;;
64609;SDS011;51019;46.090;6.350;2022-12-13T04:33:50;49.83;;;20.30;;
64609;SDS011;51019;46.090;6.350;2022-12-13T04:36:18;45.97;;;20.17;;
64609;SDS011;51019;46.090;6.350;2022-12-13T04:38:49;46.97;;;18.77;;
64609;SDS011;51019;46.090;6.350;2022-12-13T04:41:18;48.63;;;19.48;;
64609;SDS011;51019;46.090;6.350;2022-12-13T04:43:49;43.88;;;19.00;;
64609;SDS011;51019;46.090;6.350;2022-12-13T04:46:17;42.78;;;18.75;;
64609;SDS011;51019;46.090;6.350;2022-12-13T04:48:45;45.92;;;19.27;;
64609;SDS011;51019;46.090;6.350;2022-12-13T04:51:12;47.15;;;19.70;;
64609;SDS011;51019;46.090;6.350;2022-12-13T04:53:42;43.33;;;18.17;;
64609;SDS011;51019;46.090;6.350;2022-12-13T04:56:09;49.22;;;18.70;;
64609;SDS011;51019;46.090;6.350;2022-12-13T04:58:39;48.53;;;19.58;;
64609;SDS011;51019;46.090;6.350;2022-12-13T05:01:07;47.15;;;20.48;;
64609;SDS011;51019;46.090;6.350;2022-12-13T05:03:35;43.25;;;17.77;;
64609;SDS011;51019;46.090;6.350;2022-12-13T05:06:03;44.88;;;18.55;;
64609;SDS011;51019;46.090;6.350;2022-12-13T05:08:31;45.70;;;17.42;;
64609;SDS011;51019;46.090;6.350;2022-12-13T05:10:59;43.40;;;18.88;;
64609;SDS011;51019;46.090;6.350;2022-12-13T05:13:27;44.45;;;18.67;;
64609;SDS011;51019;46.090;6.350;2022-12-13T05:15:56;43.70;;;17.80;;
64609;SDS011;51019;46.090;6.350;2022-12-13T05:18:24;39.67;;;18.60;;
64609;SDS011;51019;46.090;6.350;2022-12-13T05:20:51;46.25;;;18.92;;
64609;SDS011;51019;46.090;6.350;2022-12-13T05:23:19;43.35;;;17.88;;
64609;SDS011;51019;46.090;6.350;2022-12-13T05:25:48;44.45;;;18.25;;
64609;SDS011;51019;46.090;6.350;2022-12-13T05:28:15;42.65;;;19.35;;
64609;SDS011;51019;46.090;6.350;2022-12-13T05:30:43;44.13;;;18.77;;
64609;SDS011;51019;46.090;6.350;2022-12-13T05:33:12;42.95;;;18.17;;
64609;SDS011;51019;46.090;6.350;2022-12-13T05:35:39;41.88;;;18.35;;
64609;SDS011;51019;46.090;6.350;2022-12-13T05:38:07;45.38;;;18.20;;
64609;SDS011;51019;46.090;6.350;2022-12-13T05:40:34;41.10;;;18.35;;
64609;SDS011;51019;46.090;6.350;2022-12-13T05:43:01;40.75;;;18.17;;
64609;SDS011;51019;46.090;6.350;2022-12-13T05:45:31;41.17;;;18.33;;
64609;SDS011;51019;46.090;6.350;2022-12-13T05:47:59;44.25;;;19.92;;
64609;SDS011;51019;46.090;6.350;2022-12-13T05:50:28;43.38;;;19.35;;
64609;SDS011;51019;46.090;6.350;2022-12-13T05:52:55;44.97;;;20.13;;
64609;SDS011;51019;46.090;6.350;2022-12-13T05:55:23;46.33;;;19.65;;
64609;SDS011;51019;46.090;6.350;2022-12-13T05:57:50;45.17;;;19.23;;
64609;SDS011;51019;46.090;6.350;2022-12-13T06:00:17;45.20;;;20.08;;
64609;SDS011;51019;46.090;6.350;2022-12-13T06:02:45;43.05;;;19.80;;
64609;SDS011;51019;46.090;6.350;2022-12-13T06:05:13;43.00;;;19.13;;
64609;SDS011;51019;46.090;6.350;2022-12-13T06:07:42;47.25;;;20.27;;
64609;SDS011;51019;46.090;6.350;2022-12-13T06:10:09;41.88;;;18.85;;
64609;SDS011;51019;46.090;6.350;2022-12-13T06:12:37;40.45;;;18.08;;
64609;SDS011;51019;46.090;6.350;2022-12-13T06:15:05;42.70;;;19.60;;
64609;SDS011;51019;46.090;6.350;2022-12-13T06:17:33;42.35;;;18.08;;
64609;SDS011;51019;46.090;6.350;2022-12-13T06:20:02;44.05;;;18.73;;
64609;SDS011;51019;46.090;6.350;2022-12-13T06:22:30;40.75;;;18.10;;
64609;SDS011;51019;46.090;6.350;2022-12-13T06:25:00;44.50;;;18.25;;
64609;SDS011;51019;46.090;6.350;2022-12-13T06:27:27;42.55;;;18.27;;
64609;SDS011;51019;46.090;6.350;2022-12-13T06:29:54;44.05;;;19.30;;
64609;SDS011;51019;46.090;6.350;2022-12-13T06:32:22;43.15;;;19.08;;
64609;SDS011;51019;46.090;6.350;2022-12-13T06:34:51;42.28;;;18.05;;
64609;SDS011;51019;46.090;6.350;2022-12-13T06:37:19;46.22;;;19.85;;
64609;SDS011;51019;46.090;6.350;2022-12-13T06:39:46;46.80;;;19.55;;
64609;SDS011;51019;46.090;6.350;2022-12-13T06:42:16;45.53;;;18.70;;
64609;SDS011;51019;46.090;6.350;2022-12-13T06:44:44;40.38;;;17.65;;
64609;SDS011;51019;46.090;6.350;2022-12-13T06:47:15;37.75;;;17.52;;
64609;SDS011;51019;46.090;6.350;2022-12-13T06:49:43;43.47;;;18.08;;
64609;SDS011;51019;46.090;6.350;2022-12-13T06:52:10;42.08;;;18.25;;
64609;SDS011;51019;46.090;6.350;2022-12-13T06:54:39;43.35;;;18.08;;
64609;SDS011;51019;46.090;6.350;2022-12-13T06:57:07;41.58;;;18.98;;
64609;SDS011;51019;46.090;6.350;2022-12-13T06:59:37;42.75;;;18.67;;
64609;SDS011;51019;46.090;6.350;2022-12-13T07:02:04;42.97;;;18.65;;
64609;SDS011;51019;46.090;6.350;2022-12-13T07:04:32;46.10;;;17.40;;
64609;SDS011;51019;46.090;6.350;2022-12-13T07:06:59;40.83;;;17.70;;
64609;SDS011;51019;46.090;6.350;2022-12-13T07:09:27;47.42;;;19.50;;
64609;SDS011;51019;46.090;6.350;2022-12-13T07:11:55;47.15;;;19.77;;
64609;SDS011;51019;46.090;6.350;2022-12-13T07:14:23;40.05;;;18.27;;
64609;SDS011;51019;46.090;6.350;2022-12-13T07:16:52;45.58;;;19.92;;
64609;SDS011;51019;46.090;6.350;2022-12-13T07:19:20;43.83;;;18.95;;
64609;SDS011;51019;46.090;6.350;2022-12-13T07:21:47;54.67;;;20.90;;
64609;SDS011;51019;46.090;6.350;2022-12-13T07:24:14;47.28;;;20.40;;
64609;SDS011;51019;46.090;6.350;2022-12-13T07:26:42;45.80;;;18.85;;
64609;SDS011;51019;46.090;6.350;2022-12-13T07:29:09;45.97;;;18.83;;
64609;SDS011;51019;46.090;6.350;2022-12-13T07:31:36;45.42;;;19.13;;
64609;SDS011;51019;46.090;6.350;2022-12-13T07:34:05;45.75;;;19.05;;
64609;SDS011;51019;46.090;6.350;2022-12-13T07:36:33;46.72;;;19.33;;
64609;SDS011;51019;46.090;6.350;2022-12-13T07:39:00;49.50;;;19.50;;
64609;SDS011;51019;46.090;6.350;2022-12-13T07:41:27;42.40;;;18.92;;
64609;SDS011;51019;46.090;6.350;2022-12-13T07:43:55;45.40;;;18.90;;
64609;SDS011;51019;46.090;6.350;2022-12-13T07:46:23;45.97;;;21.02;;
64609;SDS011;51019;46.090;6.350;2022-12-13T07:48:51;49.25;;;18.75;;
64609;SDS011;51019;46.090;6.350;2022-12-13T07:51:20;42.90;;;18.98;;
64609;SDS011;51019;46.090;6.350;2022-12-13T07:53:47;48.00;;;20.40;;
64609;SDS011;51019;46.090;6.350;2022-12-13T07:56:14;52.25;;;23.17;;
64609;SDS011;51019;46.090;6.350;2022-12-13T07:58:42;49.08;;;22.05;;
64609;SDS011;51019;46.090;6.350;2022-12-13T08:01:11;48.88;;;21.75;;
64609;SDS011;51019;46.090;6.350;2022-12-13T08:03:39;51.17;;;20.88;;
64609;SDS011;51019;46.090;6.350;2022-12-13T08:06:07;43.22;;;19.92;;
64609;SDS011;51019;46.090;6.350;2022-12-13T08:08:39;46.75;;;19.50;;
64609;SDS011;51019;46.090;6.350;2022-12-13T08:11:07;48.92;;;19.60;;
64609;SDS011;51019;46.090;6.350;2022-12-13T08:13:35;44.78;;;19.30;;
64609;SDS011;51019;46.090;6.350;2022-12-13T08:16:05;40.15;;;20.23;;
64609;SDS011;51019;46.090;6.350;2022-12-13T08:18:34;45.20;;;20.73;;
64609;SDS011;51019;46.090;6.350;2022-12-13T08:21:04;47.17;;;20.55;;
64609;SDS011;51019;46.090;6.350;2022-12-13T08:23:33;42.42;;;20.25;;
64609;SDS011;51019;46.090;6.350;2022-12-13T08:26:03;49.95;;;20.73;;
64609;SDS011;51019;46.090;6.350;2022-12-13T08:28:32;57.70;;;21.38;;
64609;SDS011;51019;46.090;6.350;2022-12-13T08:31:02;44.75;;;18.83;;
64609;SDS011;51019;46.090;6.350;2022-12-13T08:33:32;47.63;;;19.45;;
64609;SDS011;51019;46.090;6.350;2022-12-13T08:36:06;46.00;;;20.10;;
64609;SDS011;51019;46.090;6.350;2022-12-13T08:38:34;48.25;;;19.77;;
64609;SDS011;51019;46.090;6.350;2022-12-13T08:41:04;46.25;;;19.77;;
64609;SDS011;51019;46.090;6.350;2022-12-13T08:43:33;46.97;;;20.40;;
64609;SDS011;51019;46.090;6.350;2022-12-13T08:46:01;46.53;;;20.30;;
64609;SDS011;51019;46.090;6.350;2022-12-13T08:48:28;49.78;;;21.48;;
64609;SDS011;51019;46.090;6.350;2022-12-13T08:50:58;49.22;;;21.45;;
64609;SDS011;51019;46.090;6.350;2022-12-13T08:53:26;47.35;;;21.45;;
64609;SDS011;51019;46.090;6.350;2022-12-13T08:55:53;43.75;;;19.20;;
64609;SDS011;51019;46.090;6.350;2022-12-13T08:58:26;46.15;;;19.77;;
64609;SDS011;51019;46.090;6.350;2022-12-13T09:00:54;49.67;;;21.30;;
64609;SDS011;51019;46.090;6.350;2022-12-13T09:03:21;47.75;;;20.38;;
64609;SDS011;51019;46.090;6.350;2022-12-13T09:05:49;51.00;;;21.73;;
64609;SDS011;51019;46.090;6.350;2022-12-13T09:08:17;53.17;;;21.55;;
64609;SDS011;51019;46.090;6.350;2022-12-13T09:10:44;45.92;;;20.23;;
64609;SDS011;51019;46.090;6.350;2022-12-13T09:13:12;47.97;;;20.58;;
64609;SDS011;51019;46.090;6.350;2022-12-13T09:15:41;43.20;;;20.23;;
64609;SDS011;51019;46.090;6.350;2022-12-13T09:18:08;52.00;;;21.33;;
64609;SDS011;51019;46.090;6.350;2022-12-13T09:20:36;47.38;;;20.48;;
64609;SDS011;51019;46.090;6.350;2022-12-13T09:23:05;48.78;;;20.23;;
64609;SDS011;51019;46.090;6.350;2022-12-13T09:25:33;42.28;;;20.42;;
64609;SDS011;51019;46.090;6.350;2022-12-13T09:28:00;40.75;;;19.42;;
64609;SDS011;51019;46.090;6.350;2022-12-13T09:30:27;47.80;;;21.75;;
64609;SDS011;51019;46.090;6.350;2022-12-13T09:32:56;50.58;;;21.60;;
64609;SDS011;51019;46.090;6.350;2022-12-13T09:35:24;50.30;;;21.75;;
64609;SDS011;51019;46.090;6.350;2022-12-13T09:37:51;49.25;;;20.67;;
64609;SDS011;51019;46.090;6.350;2022-12-13T09:40:21;49.20;;;22.55;;
64609;SDS011;51019;46.090;6.350;2022-12-13T09:42:52;46.70;;;22.55;;
64609;SDS011;51019;46.090;6.350;2022-12-13T09:45:21;53.17;;;22.00;;
64609;SDS011;51019;46.090;6.350;2022-12-13T09:47:50;47.28;;;20.95;;
64609;SDS011;51019;46.090;6.350;2022-12-13T09:50:23;49.08;;;21.02;;
64609;SDS011;51019;46.090;6.350;2022-12-13T09:52:53;43.67;;;20.67;;
64609;SDS011;51019;46.090;6.350;2022-12-13T09:55:22;46.67;;;20.77;;
64609;SDS011;51019;46.090;6.350;2022-12-13T09:57:54;43.13;;;20.33;;
64609;SDS011;51019;46.090;6.350;2022-12-13T10:00:23;49.85;;;20.02;;
64609;SDS011;51019;46.090;6.350;2022-12-13T10:02:54;46.20;;;20.67;;
64609;SDS011;51019;46.090;6.350;2022-12-13T10:05:27;50.33;;;22.92;;
64609;SDS011;51019;46.090;6.350;2022-12-13T10:07:57;50.38;;;22.15;;
64609;SDS011;51019;46.090;6.350;2022-12-13T10:10:26;43.65;;;19.60;;
64609;SDS011;51019;46.090;6.350;2022-12-13T10:12:55;50.22;;;21.58;;
64609;SDS011;51019;46.090;6.350;2022-12-13T10:15:29;50.15;;;22.40;;
64609;SDS011;51019;46.090;6.350;2022-12-13T10:18:00;50.17;;;22.00;;
64609;SDS011;51019;46.090;6.350;2022-12-13T10:20:31;46.65;;;20.45;;
64609;SDS011;51019;46.090;6.350;2022-12-13T10:22:59;45.13;;;20.52;;
64609;SDS011;51019;46.090;6.350;2022-12-13T10:25:46;49.45;;;21.77;;
64609;SDS011;51019;46.090;6.350;2022-12-13T10:28:16;50.47;;;24.58;;
64609;SDS011;51019;46.090;6.350;2022-12-13T10:30:49;52.97;;;23.77;;
64609;SDS011;51019;46.090;6.350;2022-12-13T10:33:19;50.72;;;22.90;;
64609;SDS011;51019;46.090;6.350;2022-12-13T10:38:45;61.13;;;25.13;;
64609;SDS011;51019;46.090;6.350;2022-12-13T10:41:26;52.95;;;22.95;;
64609;SDS011;51019;46.090;6.350;2022-12-13T10:44:10;47.30;;;22.37;;
64609;SDS011;51019;46.090;6.350;2022-12-13T10:46:46;48.92;;;22.02;;
64609;SDS011;51019;46.090;6.350;2022-12-13T10:49:17;51.53;;;23.10;;
64609;SDS011;51019;46.090;6.350;2022-12-13T10:51:47;46.25;;;21.27;;
64609;SDS011;51019;46.090;6.350;2022-12-13T10:54:22;51.53;;;21.73;;
64609;SDS011;51019;46.090;6.350;2022-12-13T10:56:53;49.22;;;22.80;;
64609;SDS011;51019;46.090;6.350;2022-12-13T10:59:25;45.95;;;20.95;;
64609;SDS011;51019;46.090;6.350;2022-12-13T11:01:57;49.28;;;22.35;;
64609;SDS011;51019;46.090;6.350;2022-12-13T11:04:28;48.05;;;21.30;;
64609;SDS011;51019;46.090;6.350;2022-12-13T11:06:58;47.55;;;20.85;;
64609;SDS011;51019;46.090;6.350;2022-12-13T11:09:30;47.15;;;20.08;;
64609;SDS011;51019;46.090;6.350;2022-12-13T11:11:59;46.28;;;21.98;;
64609;SDS011;51019;46.090;6.350;2022-12-13T11:14:30;44.88;;;20.45;;
64609;SDS011;51019;46.090;6.350;2022-12-13T11:17:04;47.72;;;20.45;;
64609;SDS011;51019;46.090;6.350;2022-12-13T11:19:35;52.42;;;21.05;;
64609;SDS011;51019;46.090;6.350;2022-12-13T11:22:06;45.20;;;20.23;;
64609;SDS011;51019;46.090;6.350;2022-12-13T11:24:36;44.88;;;20.63;;
64609;SDS011;51019;46.090;6.350;2022-12-13T11:27:08;48.05;;;20.40;;
64609;SDS011;51019;46.090;6.350;2022-12-13T11:30:02;49.95;;;22.15;;
64609;SDS011;51019;46.090;6.350;2022-12-13T11:32:41;52.90;;;21.42;;
64609;SDS011;51019;46.090;6.350;2022-12-13T11:35:27;51.47;;;23.63;;
64609;SDS011;51019;46.090;6.350;2022-12-13T11:38:00;60.75;;;24.67;;
64609;SDS011;51019;46.090;6.350;2022-12-13T11:40:43;45.33;;;20.30;;
64609;SDS011;51019;46.090;6.350;2022-12-13T11:43:14;45.80;;;20.80;;
64609;SDS011;51019;46.090;6.350;2022-12-13T11:45:54;50.33;;;21.15;;
64609;SDS011;51019;46.090;6.350;2022-12-13T11:48:25;55.55;;;24.73;;
64609;SDS011;51019;46.090;6.350;2022-12-13T11:51:03;57.90;;;27.50;;
64609;SDS011;51019;46.090;6.350;2022-12-13T11:53:34;54.28;;;23.50;;
64609;SDS011;51019;46.090;6.350;2022-12-13T11:56:14;43.40;;;20.98;;
64609;SDS011;51019;46.090;6.350;2022-12-13T11:58:50;48.40;;;21.48;;
64609;SDS011;51019;46.090;6.350;2022-12-13T12:01:25;48.20;;;20.50;;
64609;SDS011;51019;46.090;6.350;2022-12-13T12:03:58;43.00;;;18.65;;
64609;SDS011;51019;46.090;6.350;2022-12-13T12:06:34;48.42;;;20.63;;
64609;SDS011;51019;46.090;6.350;2022-12-13T12:09:09;49.13;;;22.30;;
64609;SDS011;51019;46.090;6.350;2022-12-13T12:11:43;65.85;;;27.52;;
64609;SDS011;51019;46.090;6.350;2022-12-13T12:14:15;53.40;;;23.83;;
64609;SDS011;51019;46.090;6.350;2022-12-13T12:16:49;71.20;;;30.08;;
64609;SDS011;51019;46.090;6.350;2022-12-13T12:19:19;67.78;;;28.48;;
64609;SDS011;51019;46.090;6.350;2022-12-13T12:21:52;52.25;;;23.40;;
64609;SDS011;51019;46.090;6.350;2022-12-13T12:24:31;55.47;;;20.88;;
64609;SDS011;51019;46.090;6.350;2022-12-13T12:27:19;39.88;;;17.05;;
64609;SDS011;51019;46.090;6.350;2022-12-13T12:30:04;44.28;;;18.67;;
64609;SDS011;51019;46.090;6.350;2022-12-13T12:32:46;44.63;;;19.77;;
64609;SDS011;51019;46.090;6.350;2022-12-13T12:35:26;41.28;;;18.63;;
64609;SDS011;51019;46.090;6.350;2022-12-13T12:38:08;38.13;;;17.05;;
64609;SDS011;51019;46.090;6.350;2022-12-13T12:40:54;36.00;;;16.60;;
64609;SDS011;51019;46.090;6.350;2022-12-13T12:43:44;36.17;;;16.52;;
64609;SDS011;51019;46.090;6.350;2022-12-13T12:46:32;36.08;;;16.75;;
64609;SDS011;51019;46.090;6.350;2022-12-13T12:52:16;34.10;;;15.80;;
64609;SDS011;51019;46.090;6.350;2022-12-13T12:54:54;38.75;;;17.05;;
64609;SDS011;51019;46.090;6.350;2022-12-13T12:57:32;40.25;;;17.65;;
64609;SDS011;51019;46.090;6.350;2022-12-13T13:00:10;36.08;;;16.17;;
64609;SDS011;51019;46.090;6.350;2022-12-13T13:02:41;36.70;;;16.05;;
64609;SDS011;51019;46.090;6.350;2022-12-13T13:05:16;38.20;;;16.95;;
64609;SDS011;51019;46.090;6.350;2022-12-13T13:07:48;37.30;;;16.92;;
64609;SDS011;51019;46.090;6.350;2022-12-13T13:10:19;35.65;;;15.70;;
64609;SDS011;51019;46.090;6.350;2022-12-13T13:12:48;44.92;;;19.60;;
64609;SDS011;51019;46.090;6.350;2022-12-13T13:18:42;40.72;;;17.02;;
64609;SDS011;51019;46.090;6.350;2022-12-13T13:24:14;39.95;;;19.13;;
64609;SDS011;51019;46.090;6.350;2022-12-13T13:26:47;37.58;;;18.00;;
64609;SDS011;51019;46.090;6.350;2022-12-13T13:32:23;46.13;;;19.52;;
64609;SDS011;51019;46.090;6.350;2022-12-13T13:37:57;45.17;;;20.17;;
64609;SDS011;51019;46.090;6.350;2022-12-13T13:40:27;44.05;;;19.10;;
64609;SDS011;51019;46.090;6.350;2022-12-13T13:43:06;44.90;;;19.63;;
64609;SDS011;51019;46.090;6.350;2022-12-13T13:45:51;43.92;;;20.20;;
64609;SDS011;51019;46.090;6.350;2022-12-13T13:54:27;50.55;;;21.45;;
64609;SDS011;51019;46.090;6.350;2022-12-13T13:57:26;43.65;;;19.85;;
64609;SDS011;51019;46.090;6.350;2022-12-13T14:00:16;42.13;;;17.98;;
64609;SDS011;51019;46.090;6.350;2022-12-13T14:03:07;43.35;;;19.13;;
64609;SDS011;51019;46.090;6.350;2022-12-13T14:09:13;42.70;;;19.13;;
64609;SDS011;51019;46.090;6.350;2022-12-13T14:12:11;96.82;;;43.53;;
64609;SDS011;51019;46.090;6.350;2022-12-13T14:15:20;41.25;;;19.52;;
64609;SDS011;51019;46.090;6.350;2022-12-13T14:18:27;35.65;;;16.25;;
64609;SDS011;51019;46.090;6.350;2022-12-13T14:21:20;36.17;;;16.30;;
64609;SDS011;51019;46.090;6.350;2022-12-13T14:24:01;46.28;;;20.80;;
64609;SDS011;51019;46.090;6.350;2022-12-13T14:26:44;57.53;;;25.17;;
64609;SDS011;51019;46.090;6.350;2022-12-13T14:29:26;40.20;;;19.20;;
64609;SDS011;51019;46.090;6.350;2022-12-13T14:31:57;37.65;;;17.00;;
64609;SDS011;51019;46.090;6.350;2022-12-13T14:34:26;41.63;;;18.67;;
64609;SDS011;51019;46.090;6.350;2022-12-13T14:36:55;35.80;;;16.52;;
64609;SDS011;51019;46.090;6.350;2022-12-13T14:39:26;38.55;;;16.98;;
64609;SDS011;51019;46.090;6.350;2022-12-13T14:41:55;35.33;;;15.63;;
64609;SDS011;51019;46.090;6.350;2022-12-13T14:44:24;36.78;;;16.10;;
64609;SDS011;51019;46.090;6.350;2022-12-13T14:46:54;37.78;;;16.63;;
64609;SDS011;51019;46.090;6.350;2022-12-13T14:49:23;34.35;;;16.50;;
64609;SDS011;51019;46.090;6.350;2022-12-13T14:51:54;38.95;;;16.40;;
64609;SDS011;51019;46.090;6.350;2022-12-13T14:54:30;38.10;;;17.02;;
64609;SDS011;51019;46.090;6.350;2022-12-13T14:57:04;35.58;;;15.98;;
64609;SDS011;51019;46.090;6.350;2022-12-13T14:59:32;39.47;;;16.85;;
64609;SDS011;51019;46.090;6.350;2022-12-13T15:01:59;35.50;;;16.98;;
64609;SDS011;51019;46.090;6.350;2022-12-13T15:04:28;37.90;;;17.55;;
64609;SDS011;51019;46.090;6.350;2022-12-13T15:06:59;41.97;;;18.58;;
64609;SDS011;51019;46.090;6.350;2022-12-13T15:09:33;40.03;;;18.73;;
64609;SDS011;51019;46.090;6.350;2022-12-13T15:12:06;38.10;;;17.42;;
64609;SDS011;51019;46.090;6.350;2022-12-13T15:14:37;43.50;;;20.05;;
64609;SDS011;51019;46.090;6.350;2022-12-13T15:17:17;37.10;;;16.98;;